Terminal Aerodrome Forecast
Issued by NWS

Home | Current Version | Previous Version | Text Only | Print | Product List | Glossary Off
Versions: 1 2 3 4 5 6 7 8 9 10 11 12 13 14

000
FTUS43 KMPX 231138
TAFRNH
TAF
KRNH 231138Z 2312/2412 18009KT P6SM SKC
     FM231600 18014G22KT P6SM BKN250
     FM240000 17007KT P6SM SCT050 BKN150 PROB30 2403/2409 4SM -TSRA
      OVC035CB=

USA.gov is the U.S. government's official web portal to all federal, state and local government web resources and services.